CheckWX is a tool to help pilots better visualize weather data.  It is not intended as a substitute for an official pre-flight weather briefing.

06:45:02 UTC

KISN TAF
Sloulin Field International Airport
Williston, North Dakota, USA
KISN 160556Z 1606/1706 36009KT P6SM SKC FM161400 32005KT P6SM BKN020 FM161700 32007KT P6SM SCT060 FM162300 35008KT P6SM BKN070 FM170100 04008KT P6SM SKC

Jun-16@
06:00 UTC

Jun-16 @ 06:00 UTC

Jun-16@
14:00 UTC

Jun-16 @ 14:00 UTC

KISN 160556Z 1606/1706 36009KT P6SM SKC
Wind
  • 360° at 9 KTS
Cloud Levels
  • Clear skies

Jun-16@
14:00 UTC

Jun-16 @ 14:00 UTC

Jun-16@
17:00 UTC

Jun-16 @ 17:00 UTC

FM161400 32005KT P6SM BKN020

From

From Standard forecast or significant change

Wind
  • 320° at 5 KTS
Cloud Levels
  • Broken at 2,000' AGL

Jun-16@
17:00 UTC

Jun-16 @ 17:00 UTC

Jun-16@
23:00 UTC

Jun-16 @ 23:00 UTC

FM161700 32007KT P6SM SCT060

From

From Standard forecast or significant change

Wind
  • 320° at 7 KTS
Cloud Levels
  • Scattered at 6,000' AGL

Jun-16@
23:00 UTC

Jun-16 @ 23:00 UTC

Jun-17@
01:00 UTC

Jun-17 @ 01:00 UTC

FM162300 35008KT P6SM BKN070

From

From Standard forecast or significant change

Wind
  • 350° at 8 KTS
Cloud Levels
  • Broken at 7,000' AGL

Jun-17@
01:00 UTC

Jun-17 @ 01:00 UTC

Jun-17@
06:00 UTC

Jun-17 @ 06:00 UTC

FM170100 04008KT P6SM SKC

From

From Standard forecast or significant change

Wind
  • 040° at 8 KTS
Cloud Levels
  • Clear skies